sensor_id;sensor_type;location;lat;lon;timestamp;pressure;altitude;pressure_sealevel;temperature;humidity
58979;BME280;44763;50.464;30.612;2024-01-07T00:01:26;100277.35;;;-3.59;100.00
58979;BME280;44763;50.464;30.612;2024-01-07T00:03:28;100284.44;;;-3.59;100.00
58979;BME280;44763;50.464;30.612;2024-01-07T00:05:30;100279.55;;;-3.59;100.00
58979;BME280;44763;50.464;30.612;2024-01-07T00:07:35;100283.11;;;-3.57;100.00
58979;BME280;44763;50.464;30.612;2024-01-07T00:09:37;100278.39;;;-3.59;100.00
58979;BME280;44763;50.464;30.612;2024-01-07T00:11:39;100288.34;;;-3.63;100.00
58979;BME280;44763;50.464;30.612;2024-01-07T00:13:42;100288.00;;;-3.66;100.00
58979;BME280;44763;50.464;30.612;2024-01-07T00:15:45;100288.91;;;-3.66;100.00
58979;BME280;44763;50.464;30.612;2024-01-07T00:17:47;100287.54;;;-3.61;100.00
58979;BME280;44763;50.464;30.612;2024-01-07T00:19:48;100294.40;;;-3.55;100.00
58979;BME280;44763;50.464;30.612;2024-01-07T00:21:50;100298.85;;;-3.50;100.00
58979;BME280;44763;50.464;30.612;2024-01-07T00:23:52;100292.73;;;-3.50;100.00
58979;BME280;44763;50.464;30.612;2024-01-07T00:25:54;100294.48;;;-3.56;100.00
58979;BME280;44763;50.464;30.612;2024-01-07T00:27:56;100297.11;;;-3.61;100.00
58979;BME280;44763;50.464;30.612;2024-01-07T00:29:58;100301.98;;;-3.67;100.00
58979;BME280;44763;50.464;30.612;2024-01-07T00:32:02;100299.40;;;-3.70;100.00
58979;BME280;44763;50.464;30.612;2024-01-07T00:34:04;100299.84;;;-3.72;100.00
58979;BME280;44763;50.464;30.612;2024-01-07T00:36:06;100301.80;;;-3.73;100.00
58979;BME280;44763;50.464;30.612;2024-01-07T00:38:07;100303.90;;;-3.73;100.00
58979;BME280;44763;50.464;30.612;2024-01-07T00:40:10;100305.51;;;-3.74;100.00
58979;BME280;44763;50.464;30.612;2024-01-07T00:42:12;100309.05;;;-3.75;100.00
58979;BME280;44763;50.464;30.612;2024-01-07T00:44:14;100307.77;;;-3.79;100.00
58979;BME280;44763;50.464;30.612;2024-01-07T00:46:16;100297.08;;;-3.86;100.00
58979;BME280;44763;50.464;30.612;2024-01-07T00:48:17;100308.59;;;-3.92;100.00
58979;BME280;44763;50.464;30.612;2024-01-07T00:50:19;100302.86;;;-3.95;100.00
58979;BME280;44763;50.464;30.612;2024-01-07T00:52:21;100305.44;;;-3.95;100.00
58979;BME280;44763;50.464;30.612;2024-01-07T00:54:24;100307.27;;;-3.93;100.00
58979;BME280;44763;50.464;30.612;2024-01-07T00:56:28;100312.05;;;-3.92;100.00
58979;BME280;44763;50.464;30.612;2024-01-07T00:58:29;100315.55;;;-3.92;100.00
58979;BME280;44763;50.464;30.612;2024-01-07T01:00:31;100324.19;;;-3.92;100.00
58979;BME280;44763;50.464;30.612;2024-01-07T01:02:34;100311.23;;;-3.93;100.00
58979;BME280;44763;50.464;30.612;2024-01-07T01:04:40;100313.11;;;-3.95;100.00
58979;BME280;44763;50.464;30.612;2024-01-07T01:06:42;100318.58;;;-3.97;100.00
58979;BME280;44763;50.464;30.612;2024-01-07T01:08:45;100321.90;;;-3.97;100.00
58979;BME280;44763;50.464;30.612;2024-01-07T01:10:47;100323.39;;;-3.96;100.00
58979;BME280;44763;50.464;30.612;2024-01-07T01:12:48;100323.83;;;-3.94;100.00
58979;BME280;44763;50.464;30.612;2024-01-07T01:14:51;100324.20;;;-3.95;100.00
58979;BME280;44763;50.464;30.612;2024-01-07T01:16:53;100313.54;;;-3.96;100.00
58979;BME280;44763;50.464;30.612;2024-01-07T01:18:55;100312.86;;;-3.97;100.00
58979;BME280;44763;50.464;30.612;2024-01-07T01:20:57;100320.63;;;-3.96;100.00
58979;BME280;44763;50.464;30.612;2024-01-07T01:22:58;100319.83;;;-3.97;100.00
58979;BME280;44763;50.464;30.612;2024-01-07T01:25:00;100318.64;;;-4.03;100.00
58979;BME280;44763;50.464;30.612;2024-01-07T01:27:03;100312.91;;;-4.08;100.00
58979;BME280;44763;50.464;30.612;2024-01-07T01:29:05;100320.13;;;-4.13;100.00
58979;BME280;44763;50.464;30.612;2024-01-07T01:31:07;100320.80;;;-4.13;100.00
58979;BME280;44763;50.464;30.612;2024-01-07T01:33:09;100324.02;;;-4.12;100.00
58979;BME280;44763;50.464;30.612;2024-01-07T01:35:11;100331.85;;;-4.12;100.00
58979;BME280;44763;50.464;30.612;2024-01-07T01:37:12;100327.81;;;-4.11;100.00
58979;BME280;44763;50.464;30.612;2024-01-07T01:39:14;100332.16;;;-4.12;100.00
58979;BME280;44763;50.464;30.612;2024-01-07T01:41:16;100330.14;;;-4.18;100.00
58979;BME280;44763;50.464;30.612;2024-01-07T01:43:28;100329.39;;;-4.28;100.00
58979;BME280;44763;50.464;30.612;2024-01-07T01:45:30;100324.89;;;-4.37;100.00
58979;BME280;44763;50.464;30.612;2024-01-07T01:47:32;100336.11;;;-4.42;100.00
58979;BME280;44763;50.464;30.612;2024-01-07T01:49:34;100330.14;;;-4.43;100.00
58979;BME280;44763;50.464;30.612;2024-01-07T01:51:38;100339.83;;;-4.46;100.00
58979;BME280;44763;50.464;30.612;2024-01-07T01:53:40;100329.52;;;-4.47;100.00
58979;BME280;44763;50.464;30.612;2024-01-07T01:55:43;100324.02;;;-4.49;100.00
58979;BME280;44763;50.464;30.612;2024-01-07T01:57:46;100320.87;;;-4.48;100.00
58979;BME280;44763;50.464;30.612;2024-01-07T01:59:48;100326.74;;;-4.51;100.00
58979;BME280;44763;50.464;30.612;2024-01-07T02:01:50;100327.71;;;-4.58;100.00
58979;BME280;44763;50.464;30.612;2024-01-07T02:03:52;100329.48;;;-4.65;100.00
58979;BME280;44763;50.464;30.612;2024-01-07T02:05:56;100342.51;;;-4.68;100.00
58979;BME280;44763;50.464;30.612;2024-01-07T02:07:59;100323.42;;;-4.71;100.00
58979;BME280;44763;50.464;30.612;2024-01-07T02:10:01;100333.86;;;-4.74;100.00
58979;BME280;44763;50.464;30.612;2024-01-07T02:12:05;100342.13;;;-4.76;100.00
58979;BME280;44763;50.464;30.612;2024-01-07T02:14:13;100324.02;;;-4.81;100.00
58979;BME280;44763;50.464;30.612;2024-01-07T02:16:15;100324.48;;;-4.83;100.00
58979;BME280;44763;50.464;30.612;2024-01-07T02:18:17;100327.74;;;-4.85;100.00
58979;BME280;44763;50.464;30.612;2024-01-07T02:20:19;100342.06;;;-4.90;100.00
58979;BME280;44763;50.464;30.612;2024-01-07T02:22:21;100331.13;;;-4.96;100.00
58979;BME280;44763;50.464;30.612;2024-01-07T02:24:23;100316.34;;;-5.01;100.00
58979;BME280;44763;50.464;30.612;2024-01-07T02:26:25;100322.42;;;-5.01;100.00
58979;BME280;44763;50.464;30.612;2024-01-07T02:28:32;100314.11;;;-5.01;100.00
58979;BME280;44763;50.464;30.612;2024-01-07T02:30:36;100315.54;;;-5.02;100.00
58979;BME280;44763;50.464;30.612;2024-01-07T02:32:38;100325.08;;;-5.05;100.00
58979;BME280;44763;50.464;30.612;2024-01-07T02:34:40;100321.55;;;-5.10;100.00
58979;BME280;44763;50.464;30.612;2024-01-07T02:36:42;100325.67;;;-5.13;100.00
58979;BME280;44763;50.464;30.612;2024-01-07T02:38:44;100336.94;;;-5.15;100.00
58979;BME280;44763;50.464;30.612;2024-01-07T02:40:45;100340.80;;;-5.22;100.00
58979;BME280;44763;50.464;30.612;2024-01-07T02:42:47;100334.09;;;-5.30;100.00
58979;BME280;44763;50.464;30.612;2024-01-07T02:44:49;100325.33;;;-5.34;100.00
58979;BME280;44763;50.464;30.612;2024-01-07T02:46:51;100341.88;;;-5.33;100.00
58979;BME280;44763;50.464;30.612;2024-01-07T02:48:53;100337.31;;;-5.31;100.00
58979;BME280;44763;50.464;30.612;2024-01-07T02:50:55;100343.16;;;-5.31;100.00
58979;BME280;44763;50.464;30.612;2024-01-07T02:52:57;100348.09;;;-5.32;100.00
58979;BME280;44763;50.464;30.612;2024-01-07T02:54:59;100353.41;;;-5.34;100.00
58979;BME280;44763;50.464;30.612;2024-01-07T02:57:04;100344.29;;;-5.38;100.00
58979;BME280;44763;50.464;30.612;2024-01-07T02:59:05;100358.77;;;-5.46;100.00
58979;BME280;44763;50.464;30.612;2024-01-07T03:01:10;100342.52;;;-5.54;100.00
58979;BME280;44763;50.464;30.612;2024-01-07T03:03:12;100342.92;;;-5.57;100.00
58979;BME280;44763;50.464;30.612;2024-01-07T03:05:14;100346.26;;;-5.58;100.00
58979;BME280;44763;50.464;30.612;2024-01-07T03:07:16;100354.80;;;-5.62;100.00
58979;BME280;44763;50.464;30.612;2024-01-07T03:09:18;100359.61;;;-5.68;100.00
58979;BME280;44763;50.464;30.612;2024-01-07T03:11:21;100348.27;;;-5.76;100.00
58979;BME280;44763;50.464;30.612;2024-01-07T03:13:23;100349.69;;;-5.83;100.00
58979;BME280;44763;50.464;30.612;2024-01-07T03:15:27;100354.43;;;-5.87;100.00
58979;BME280;44763;50.464;30.612;2024-01-07T03:17:29;100341.11;;;-5.91;100.00
58979;BME280;44763;50.464;30.612;2024-01-07T03:19:31;100357.36;;;-5.94;100.00
58979;BME280;44763;50.464;30.612;2024-01-07T03:21:33;100359.35;;;-5.98;100.00
58979;BME280;44763;50.464;30.612;2024-01-07T03:23:36;100351.75;;;-6.05;100.00
58979;BME280;44763;50.464;30.612;2024-01-07T03:25:37;100352.38;;;-6.10;100.00
58979;BME280;44763;50.464;30.612;2024-01-07T03:27:39;100365.86;;;-6.10;100.00
58979;BME280;44763;50.464;30.612;2024-01-07T03:29:41;100378.02;;;-6.08;100.00
58979;BME280;44763;50.464;30.612;2024-01-07T03:31:45;100370.33;;;-6.06;100.00
58979;BME280;44763;50.464;30.612;2024-01-07T03:33:47;100368.23;;;-6.06;100.00
58979;BME280;44763;50.464;30.612;2024-01-07T03:35:49;100384.45;;;-6.04;100.00
58979;BME280;44763;50.464;30.612;2024-01-07T03:37:51;100385.19;;;-6.09;100.00
58979;BME280;44763;50.464;30.612;2024-01-07T03:39:52;100374.30;;;-6.16;100.00
58979;BME280;44763;50.464;30.612;2024-01-07T03:41:55;100384.79;;;-6.21;100.00
58979;BME280;44763;50.464;30.612;2024-01-07T03:43:57;100385.10;;;-6.24;100.00
58979;BME280;44763;50.464;30.612;2024-01-07T03:46:02;100386.19;;;-6.21;100.00
58979;BME280;44763;50.464;30.612;2024-01-07T03:48:05;100378.34;;;-6.20;100.00
58979;BME280;44763;50.464;30.612;2024-01-07T03:50:09;100387.02;;;-6.20;100.00
58979;BME280;44763;50.464;30.612;2024-01-07T03:52:11;100388.92;;;-6.21;100.00
58979;BME280;44763;50.464;30.612;2024-01-07T03:54:12;100391.52;;;-6.24;100.00
58979;BME280;44763;50.464;30.612;2024-01-07T03:56:14;100398.20;;;-6.30;100.00
58979;BME280;44763;50.464;30.612;2024-01-07T03:58:16;100400.77;;;-6.36;100.00
58979;BME280;44763;50.464;30.612;2024-01-07T04:00:18;100406.14;;;-6.43;100.00
58979;BME280;44763;50.464;30.612;2024-01-07T04:02:20;100398.23;;;-6.47;100.00
58979;BME280;44763;50.464;30.612;2024-01-07T04:04:22;100397.15;;;-6.47;100.00
58979;BME280;44763;50.464;30.612;2024-01-07T04:06:24;100393.25;;;-6.44;100.00
58979;BME280;44763;50.464;30.612;2024-01-07T04:08:26;100386.75;;;-6.46;100.00
58979;BME280;44763;50.464;30.612;2024-01-07T04:10:28;100391.94;;;-6.46;100.00
58979;BME280;44763;50.464;30.612;2024-01-07T04:12:30;100397.11;;;-6.46;100.00
58979;BME280;44763;50.464;30.612;2024-01-07T04:14:32;100403.20;;;-6.47;100.00
58979;BME280;44763;50.464;30.612;2024-01-07T04:16:35;100403.97;;;-6.48;100.00
58979;BME280;44763;50.464;30.612;2024-01-07T04:18:37;100406.02;;;-6.51;100.00
58979;BME280;44763;50.464;30.612;2024-01-07T04:20:39;100408.34;;;-6.56;100.00
58979;BME280;44763;50.464;30.612;2024-01-07T04:22:41;100411.82;;;-6.60;100.00
58979;BME280;44763;50.464;30.612;2024-01-07T04:24:43;100411.63;;;-6.62;100.00
58979;BME280;44763;50.464;30.612;2024-01-07T04:26:45;100427.46;;;-6.61;100.00
58979;BME280;44763;50.464;30.612;2024-01-07T04:28:47;100429.70;;;-6.61;100.00
58979;BME280;44763;50.464;30.612;2024-01-07T04:30:49;100435.60;;;-6.65;100.00
58979;BME280;44763;50.464;30.612;2024-01-07T04:32:51;100431.00;;;-6.74;100.00
58979;BME280;44763;50.464;30.612;2024-01-07T04:34:53;100430.59;;;-6.79;100.00
58979;BME280;44763;50.464;30.612;2024-01-07T04:36:55;100434.55;;;-6.82;100.00
58979;BME280;44763;50.464;30.612;2024-01-07T04:38:57;100436.86;;;-6.84;100.00
58979;BME280;44763;50.464;30.612;2024-01-07T04:40:58;100445.79;;;-6.82;100.00
58979;BME280;44763;50.464;30.612;2024-01-07T04:43:00;100445.30;;;-6.83;100.00
58979;BME280;44763;50.464;30.612;2024-01-07T04:45:03;100449.15;;;-6.84;100.00
58979;BME280;44763;50.464;30.612;2024-01-07T04:47:23;100452.48;;;-6.81;100.00
58979;BME280;44763;50.464;30.612;2024-01-07T04:49:25;100455.40;;;-6.85;100.00
58979;BME280;44763;50.464;30.612;2024-01-07T04:51:27;100466.05;;;-6.91;100.00
58979;BME280;44763;50.464;30.612;2024-01-07T04:54:39;100456.02;;;-7.08;100.00
58979;BME280;44763;50.464;30.612;2024-01-07T04:56:41;100454.02;;;-6.99;100.00
58979;BME280;44763;50.464;30.612;2024-01-07T04:58:43;100455.96;;;-6.93;100.00
58979;BME280;44763;50.464;30.612;2024-01-07T05:00:45;100463.73;;;-6.86;100.00
58979;BME280;44763;50.464;30.612;2024-01-07T05:02:49;100457.85;;;-6.79;100.00
58979;BME280;44763;50.464;30.612;2024-01-07T05:04:51;100467.20;;;-6.82;100.00
58979;BME280;44763;50.464;30.612;2024-01-07T05:06:53;100465.41;;;-6.92;100.00
58979;BME280;44763;50.464;30.612;2024-01-07T05:08:57;100455.68;;;-7.05;100.00
58979;BME280;44763;50.464;30.612;2024-01-07T05:10:58;100455.88;;;-7.13;100.00
58979;BME280;44763;50.464;30.612;2024-01-07T05:13:00;100465.22;;;-7.13;100.00
58979;BME280;44763;50.464;30.612;2024-01-07T05:15:07;100466.16;;;-7.11;100.00
58979;BME280;44763;50.464;30.612;2024-01-07T05:17:09;100461.86;;;-7.08;100.00
58979;BME280;44763;50.464;30.612;2024-01-07T05:19:11;100472.70;;;-7.07;100.00
58979;BME280;44763;50.464;30.612;2024-01-07T05:21:18;100472.74;;;-7.12;100.00
58979;BME280;44763;50.464;30.612;2024-01-07T05:23:20;100469.66;;;-7.12;100.00
58979;BME280;44763;50.464;30.612;2024-01-07T05:25:22;100478.02;;;-7.17;100.00
58979;BME280;44763;50.464;30.612;2024-01-07T05:27:24;100482.85;;;-7.25;100.00
58979;BME280;44763;50.464;30.612;2024-01-07T05:29:26;100475.33;;;-7.30;100.00
58979;BME280;44763;50.464;30.612;2024-01-07T05:31:28;100478.23;;;-7.33;100.00
58979;BME280;44763;50.464;30.612;2024-01-07T05:33:30;100473.73;;;-7.29;100.00
58979;BME280;44763;50.464;30.612;2024-01-07T05:35:34;100482.25;;;-7.23;100.00
58979;BME280;44763;50.464;30.612;2024-01-07T05:37:36;100493.45;;;-7.18;100.00
58979;BME280;44763;50.464;30.612;2024-01-07T05:39:38;100490.31;;;-7.18;100.00
58979;BME280;44763;50.464;30.612;2024-01-07T05:41:40;100484.98;;;-7.22;100.00
58979;BME280;44763;50.464;30.612;2024-01-07T05:43:42;100497.20;;;-7.26;100.00
58979;BME280;44763;50.464;30.612;2024-01-07T05:45:43;100494.17;;;-7.27;100.00
58979;BME280;44763;50.464;30.612;2024-01-07T05:47:45;100486.80;;;-7.28;100.00
58979;BME280;44763;50.464;30.612;2024-01-07T05:49:47;100492.40;;;-7.34;100.00
58979;BME280;44763;50.464;30.612;2024-01-07T05:51:49;100494.52;;;-7.42;100.00
58979;BME280;44763;50.464;30.612;2024-01-07T05:53:53;100490.70;;;-7.46;100.00
58979;BME280;44763;50.464;30.612;2024-01-07T05:55:55;100494.38;;;-7.47;100.00
58979;BME280;44763;50.464;30.612;2024-01-07T05:57:57;100491.42;;;-7.46;100.00
58979;BME280;44763;50.464;30.612;2024-01-07T05:59:59;100486.98;;;-7.51;100.00
58979;BME280;44763;50.464;30.612;2024-01-07T06:02:01;100482.02;;;-7.56;100.00
58979;BME280;44763;50.464;30.612;2024-01-07T06:04:05;100483.28;;;-7.57;100.00
58979;BME280;44763;50.464;30.612;2024-01-07T06:06:07;100479.70;;;-7.58;100.00
58979;BME280;44763;50.464;30.612;2024-01-07T06:08:08;100479.42;;;-7.59;100.00
58979;BME280;44763;50.464;30.612;2024-01-07T06:10:12;100492.66;;;-7.62;100.00
58979;BME280;44763;50.464;30.612;2024-01-07T06:12:15;100490.21;;;-7.61;100.00
58979;BME280;44763;50.464;30.612;2024-01-07T06:14:17;100487.11;;;-7.58;100.00
58979;BME280;44763;50.464;30.612;2024-01-07T06:16:19;100486.80;;;-7.54;100.00
58979;BME280;44763;50.464;30.612;2024-01-07T06:18:20;100490.30;;;-7.52;100.00
58979;BME280;44763;50.464;30.612;2024-01-07T06:20:23;100496.52;;;-7.49;100.00
58979;BME280;44763;50.464;30.612;2024-01-07T06:22:25;100500.31;;;-7.44;100.00
58979;BME280;44763;50.464;30.612;2024-01-07T06:24:27;100499.25;;;-7.44;100.00
58979;BME280;44763;50.464;30.612;2024-01-07T06:26:29;100508.55;;;-7.43;100.00
58979;BME280;44763;50.464;30.612;2024-01-07T06:28:34;100504.15;;;-7.41;100.00
58979;BME280;44763;50.464;30.612;2024-01-07T06:30:35;100508.00;;;-7.42;100.00
58979;BME280;44763;50.464;30.612;2024-01-07T06:32:37;100516.94;;;-7.46;100.00
58979;BME280;44763;50.464;30.612;2024-01-07T06:34:40;100510.48;;;-7.51;100.00
58979;BME280;44763;50.464;30.612;2024-01-07T06:36:41;100522.59;;;-7.56;100.00
58979;BME280;44763;50.464;30.612;2024-01-07T06:38:44;100504.79;;;-7.59;100.00
58979;BME280;44763;50.464;30.612;2024-01-07T06:40:46;100510.98;;;-7.59;100.00
58979;BME280;44763;50.464;30.612;2024-01-07T06:42:50;100506.51;;;-7.55;100.00
58979;BME280;44763;50.464;30.612;2024-01-07T06:44:52;100504.80;;;-7.52;100.00
58979;BME280;44763;50.464;30.612;2024-01-07T06:46:54;100507.29;;;-7.50;100.00
58979;BME280;44763;50.464;30.612;2024-01-07T06:48:55;100508.20;;;-7.51;100.00
58979;BME280;44763;50.464;30.612;2024-01-07T06:50:58;100500.55;;;-7.54;100.00
58979;BME280;44763;50.464;30.612;2024-01-07T06:53:00;100514.88;;;-7.57;100.00
58979;BME280;44763;50.464;30.612;2024-01-07T06:55:01;100517.83;;;-7.61;100.00
58979;BME280;44763;50.464;30.612;2024-01-07T06:57:04;100512.83;;;-7.66;100.00
58979;BME280;44763;50.464;30.612;2024-01-07T06:59:05;100521.20;;;-7.68;100.00
58979;BME280;44763;50.464;30.612;2024-01-07T07:01:09;100521.15;;;-7.71;100.00
58979;BME280;44763;50.464;30.612;2024-01-07T07:03:12;100511.60;;;-7.73;100.00
58979;BME280;44763;50.464;30.612;2024-01-07T07:05:14;100513.80;;;-7.76;100.00
58979;BME280;44763;50.464;30.612;2024-01-07T07:07:17;100519.16;;;-7.76;100.00
58979;BME280;44763;50.464;30.612;2024-01-07T07:09:19;100512.40;;;-7.75;100.00
58979;BME280;44763;50.464;30.612;2024-01-07T07:11:21;100516.43;;;-7.73;100.00
58979;BME280;44763;50.464;30.612;2024-01-07T07:13:23;100512.63;;;-7.69;100.00
58979;BME280;44763;50.464;30.612;2024-01-07T07:15:25;100514.20;;;-7.61;100.00
58979;BME280;44763;50.464;30.612;2024-01-07T07:17:28;100521.46;;;-7.54;100.00
58979;BME280;44763;50.464;30.612;2024-01-07T07:19:30;100528.70;;;-7.50;100.00
58979;BME280;44763;50.464;30.612;2024-01-07T07:21:32;100533.52;;;-7.50;100.00
58979;BME280;44763;50.464;30.612;2024-01-07T07:23:34;100518.84;;;-7.50;100.00
58979;BME280;44763;50.464;30.612;2024-01-07T07:25:36;100521.21;;;-7.45;100.00
58979;BME280;44763;50.464;30.612;2024-01-07T07:27:38;100528.57;;;-7.43;100.00
58979;BME280;44763;50.464;30.612;2024-01-07T07:29:39;100526.98;;;-7.39;100.00
58979;BME280;44763;50.464;30.612;2024-01-07T07:31:41;100529.91;;;-7.35;100.00
58979;BME280;44763;50.464;30.612;2024-01-07T07:33:44;100524.92;;;-7.31;100.00
58979;BME280;44763;50.464;30.612;2024-01-07T07:35:46;100527.02;;;-7.28;100.00
58979;BME280;44763;50.464;30.612;2024-01-07T07:37:48;100525.36;;;-7.30;100.00
58979;BME280;44763;50.464;30.612;2024-01-07T07:39:50;100520.54;;;-7.33;100.00
58979;BME280;44763;50.464;30.612;2024-01-07T07:41:53;100525.16;;;-7.36;100.00
58979;BME280;44763;50.464;30.612;2024-01-07T07:43:55;100527.00;;;-7.39;100.00
58979;BME280;44763;50.464;30.612;2024-01-07T07:45:57;100524.27;;;-7.39;100.00
58979;BME280;44763;50.464;30.612;2024-01-07T07:47:58;100522.05;;;-7.40;100.00
58979;BME280;44763;50.464;30.612;2024-01-07T07:50:00;100526.75;;;-7.45;100.00
58979;BME280;44763;50.464;30.612;2024-01-07T07:52:04;100526.14;;;-7.50;100.00
58979;BME280;44763;50.464;30.612;2024-01-07T07:54:06;100532.27;;;-7.53;100.00
58979;BME280;44763;50.464;30.612;2024-01-07T07:56:09;100537.34;;;-7.54;100.00
58979;BME280;44763;50.464;30.612;2024-01-07T07:58:10;100537.37;;;-7.55;100.00
58979;BME280;44763;50.464;30.612;2024-01-07T08:00:13;100539.37;;;-7.53;100.00
58979;BME280;44763;50.464;30.612;2024-01-07T08:02:15;100531.77;;;-7.45;100.00
58979;BME280;44763;50.464;30.612;2024-01-07T08:04:17;100533.67;;;-7.38;100.00
58979;BME280;44763;50.464;30.612;2024-01-07T08:06:19;100527.98;;;-7.34;100.00
58979;BME280;44763;50.464;30.612;2024-01-07T08:08:21;100523.86;;;-7.35;100.00
58979;BME280;44763;50.464;30.612;2024-01-07T08:10:23;100525.55;;;-7.37;100.00
58979;BME280;44763;50.464;30.612;2024-01-07T08:12:25;100528.48;;;-7.41;100.00
58979;BME280;44763;50.464;30.612;2024-01-07T08:14:28;100540.77;;;-7.46;100.00
58979;BME280;44763;50.464;30.612;2024-01-07T08:16:30;100538.52;;;-7.53;100.00
58979;BME280;44763;50.464;30.612;2024-01-07T08:18:33;100537.21;;;-7.59;100.00
58979;BME280;44763;50.464;30.612;2024-01-07T08:20:35;100544.57;;;-7.57;100.00
58979;BME280;44763;50.464;30.612;2024-01-07T08:22:37;100546.80;;;-7.53;100.00
58979;BME280;44763;50.464;30.612;2024-01-07T08:24:39;100559.15;;;-7.47;100.00
58979;BME280;44763;50.464;30.612;2024-01-07T08:26:41;100552.95;;;-7.40;100.00
58979;BME280;44763;50.464;30.612;2024-01-07T08:28:43;100545.73;;;-7.40;100.00
58979;BME280;44763;50.464;30.612;2024-01-07T08:30:45;100542.43;;;-7.40;100.00
58979;BME280;44763;50.464;30.612;2024-01-07T08:32:49;100541.14;;;-7.39;100.00
58979;BME280;44763;50.464;30.612;2024-01-07T08:34:51;100539.39;;;-7.38;100.00
58979;BME280;44763;50.464;30.612;2024-01-07T08:36:53;100539.39;;;-7.34;100.00
58979;BME280;44763;50.464;30.612;2024-01-07T08:38:55;100531.77;;;-7.30;100.00
58979;BME280;44763;50.464;30.612;2024-01-07T08:40:57;100535.69;;;-7.25;100.00
58979;BME280;44763;50.464;30.612;2024-01-07T08:42:59;100534.77;;;-7.16;100.00
58979;BME280;44763;50.464;30.612;2024-01-07T08:45:02;100549.14;;;-7.09;100.00
58979;BME280;44763;50.464;30.612;2024-01-07T08:47:05;100549.64;;;-7.09;100.00
58979;BME280;44763;50.464;30.612;2024-01-07T08:49:07;100548.29;;;-7.13;100.00
58979;BME280;44763;50.464;30.612;2024-01-07T08:51:09;100541.73;;;-7.13;100.00
58979;BME280;44763;50.464;30.612;2024-01-07T08:53:11;100547.72;;;-7.12;100.00
58979;BME280;44763;50.464;30.612;2024-01-07T08:55:14;100542.77;;;-7.10;100.00
58979;BME280;44763;50.464;30.612;2024-01-07T08:57:17;100553.19;;;-7.07;100.00
58979;BME280;44763;50.464;30.612;2024-01-07T08:59:19;100547.20;;;-7.08;100.00
58979;BME280;44763;50.464;30.612;2024-01-07T09:01:21;100536.27;;;-7.08;100.00
58979;BME280;44763;50.464;30.612;2024-01-07T09:03:23;100547.82;;;-7.07;100.00
58979;BME280;44763;50.464;30.612;2024-01-07T09:05:25;100530.55;;;-7.07;100.00
58979;BME280;44763;50.464;30.612;2024-01-07T09:07:27;100528.11;;;-7.07;100.00
58979;BME280;44763;50.464;30.612;2024-01-07T09:09:28;100528.10;;;-7.02;100.00
58979;BME280;44763;50.464;30.612;2024-01-07T09:11:32;100524.70;;;-6.96;100.00
58979;BME280;44763;50.464;30.612;2024-01-07T09:13:37;100530.01;;;-6.95;100.00
58979;BME280;44763;50.464;30.612;2024-01-07T09:15:43;100527.84;;;-6.97;100.00
58979;BME280;44763;50.464;30.612;2024-01-07T09:17:46;100526.19;;;-6.99;100.00
58979;BME280;44763;50.464;30.612;2024-01-07T09:19:50;100525.42;;;-7.00;100.00
58979;BME280;44763;50.464;30.612;2024-01-07T09:21:51;100523.25;;;-7.02;100.00
58979;BME280;44763;50.464;30.612;2024-01-07T09:23:56;100526.02;;;-7.06;100.00
58979;BME280;44763;50.464;30.612;2024-01-07T09:25:58;100523.84;;;-7.11;100.00
58979;BME280;44763;50.464;30.612;2024-01-07T09:28:00;100533.17;;;-7.19;100.00
58979;BME280;44763;50.464;30.612;2024-01-07T09:30:03;100520.98;;;-7.24;100.00
58979;BME280;44763;50.464;30.612;2024-01-07T09:32:05;100521.77;;;-7.27;100.00
58979;BME280;44763;50.464;30.612;2024-01-07T09:34:09;100518.36;;;-7.27;100.00
58979;BME280;44763;50.464;30.612;2024-01-07T09:36:11;100518.17;;;-7.27;100.00
58979;BME280;44763;50.464;30.612;2024-01-07T09:38:29;100510.82;;;-7.25;100.00
58979;BME280;44763;50.464;30.612;2024-01-07T09:40:31;100535.65;;;-7.16;100.00
58979;BME280;44763;50.464;30.612;2024-01-07T09:42:34;100525.86;;;-7.10;100.00
58979;BME280;44763;50.464;30.612;2024-01-07T09:44:37;100525.98;;;-7.13;100.00
58979;BME280;44763;50.464;30.612;2024-01-07T09:46:41;100519.17;;;-7.14;100.00
58979;BME280;44763;50.464;30.612;2024-01-07T09:48:44;100519.06;;;-7.16;100.00
58979;BME280;44763;50.464;30.612;2024-01-07T09:50:47;100521.60;;;-7.18;100.00
58979;BME280;44763;50.464;30.612;2024-01-07T09:52:56;100510.42;;;-7.24;100.00
58979;BME280;44763;50.464;30.612;2024-01-07T09:55:03;100510.58;;;-7.23;100.00
58979;BME280;44763;50.464;30.612;2024-01-07T09:57:08;100510.64;;;-7.17;100.00
58979;BME280;44763;50.464;30.612;2024-01-07T09:59:10;100509.77;;;-7.09;100.00
58979;BME280;44763;50.464;30.612;2024-01-07T10:01:13;100512.59;;;-7.07;100.00
58979;BME280;44763;50.464;30.612;2024-01-07T10:03:16;100514.34;;;-7.07;100.00
58979;BME280;44763;50.464;30.612;2024-01-07T10:05:18;100501.44;;;-7.09;100.00
58979;BME280;44763;50.464;30.612;2024-01-07T10:07:20;100511.15;;;-7.09;100.00
58979;BME280;44763;50.464;30.612;2024-01-07T10:09:23;100509.23;;;-7.06;100.00
58979;BME280;44763;50.464;30.612;2024-01-07T10:11:25;100511.26;;;-7.01;100.00
58979;BME280;44763;50.464;30.612;2024-01-07T10:13:27;100510.45;;;-6.98;100.00
58979;BME280;44763;50.464;30.612;2024-01-07T10:15:31;100513.92;;;-6.99;100.00
58979;BME280;44763;50.464;30.612;2024-01-07T10:17:34;100512.22;;;-7.02;100.00
58979;BME280;44763;50.464;30.612;2024-01-07T10:19:36;100509.35;;;-7.08;100.00
58979;BME280;44763;50.464;30.612;2024-01-07T10:21:38;100502.71;;;-7.14;100.00
58979;BME280;44763;50.464;30.612;2024-01-07T10:23:40;100511.36;;;-7.17;100.00
58979;BME280;44763;50.464;30.612;2024-01-07T10:25:42;100521.18;;;-7.21;100.00